Time;durP1;ratioP1;P1;durP2;ratioP2;P2;SDS_P1;SDS_P2;PMS_P1;PMS_P2;Temp;Humidity;BMP_temperature;BMP_pressure;BME280_temperature;BME280_humidity;BME280_pressure;Samples;Min_cycle;Max_cycle;Signal;HPM_P1;HPM_P2
2023/08/21 00:01:56;;;;;;;14.40;3.30;;;;;;;20.14;100.00;102122.88;5074771;28;20049;-67
2023/08/21 00:04:21;;;;;;;13.88;3.55;;;;;;;20.01;100.00;102122.19;5074568;28;20094;-66
2023/08/21 00:06:46;;;;;;;15.10;3.67;;;;;;;20.03;100.00;102121.22;5074690;28;20041;-65
2023/08/21 00:09:12;;;;;;;15.25;3.88;;;;;;;20.03;100.00;102131.09;5074541;28;20032;-66
2023/08/21 00:11:37;;;;;;;12.80;3.50;;;;;;;20.00;100.00;102133.81;5074373;28;20035;-66
2023/08/21 00:14:02;;;;;;;14.68;3.50;;;;;;;19.82;100.00;102138.56;5074617;28;20023;-65
2023/08/21 00:16:28;;;;;;;14.23;3.70;;;;;;;19.67;100.00;102127.97;5074287;28;20517;-66
2023/08/21 00:18:54;;;;;;;18.33;4.07;;;;;;;19.56;100.00;102113.84;5074228;28;20494;-67
2023/08/21 00:21:20;;;;;;;18.40;4.15;;;;;;;19.47;100.00;102107.69;5074337;28;20024;-67
2023/08/21 00:23:46;;;;;;;15.38;3.97;;;;;;;19.37;100.00;102108.72;5074098;28;20498;-66
2023/08/21 00:26:12;;;;;;;15.10;4.20;;;;;;;19.32;100.00;102103.41;5074138;28;20021;-66
2023/08/21 00:28:38;;;;;;;16.25;4.30;;;;;;;19.31;100.00;102104.31;5074291;28;20028;-66
2023/08/21 00:31:04;;;;;;;16.10;4.05;;;;;;;19.34;100.00;102108.75;5074081;28;20116;-66
2023/08/21 00:33:33;;;;;;;18.30;4.30;;;;;;;19.23;100.00;102106.19;5074035;28;20036;-65
2023/08/21 00:35:58;;;;;;;15.32;4.05;;;;;;;19.29;100.00;102099.88;5070349;28;20031;-66
2023/08/21 00:38:24;;;;;;;17.90;3.88;;;;;;;19.33;100.00;102102.50;5073861;28;20024;-66
2023/08/21 00:40:50;;;;;;;16.15;4.28;;;;;;;19.36;100.00;102104.25;5074064;28;20056;-65
2023/08/21 00:43:16;;;;;;;15.82;4.10;;;;;;;19.32;100.00;102106.09;5073999;28;20430;-66
2023/08/21 00:45:43;;;;;;;17.98;4.20;;;;;;;19.34;100.00;102112.31;5073693;28;20032;-66
2023/08/21 00:48:09;;;;;;;14.55;4.00;;;;;;;19.24;100.00;102110.66;5073735;28;20119;-65
2023/08/21 00:50:35;;;;;;;16.17;4.10;;;;;;;19.17;100.00;102112.50;5073801;28;20035;-65
2023/08/21 00:53:02;;;;;;;14.55;3.95;;;;;;;18.98;100.00;102118.97;5073622;28;20036;-66
2023/08/21 00:55:29;;;;;;;17.08;4.40;;;;;;;18.83;100.00;102117.31;5073513;28;20421;-65
2023/08/21 00:57:54;;;;;;;16.60;4.07;;;;;;;18.96;100.00;102118.09;5072638;28;20021;-66
2023/08/21 01:00:22;;;;;;;15.95;4.20;;;;;;;19.08;100.00;102115.31;5073615;28;20064;-66
2023/08/21 01:02:47;;;;;;;17.02;4.68;;;;;;;19.15;100.00;102119.69;5073200;28;20051;-66
2023/08/21 01:05:12;;;;;;;14.20;4.05;;;;;;;19.20;100.00;102113.41;5073499;28;20032;-65
2023/08/21 01:07:49;;;;;;;14.05;4.10;;;;;;;19.19;100.00;102131.25;5073619;28;20155;-66
2023/08/21 01:10:45;;;;;;;18.45;4.40;;;;;;;18.93;100.00;102128.84;5073312;28;20074;-65
2023/08/21 01:13:34;;;;;;;17.27;4.25;;;;;;;18.89;100.00;102121.78;5071212;28;20025;-68
2023/08/21 01:16:00;;;;;;;18.30;4.35;;;;;;;18.85;100.00;102109.28;5069696;28;20494;-65
2023/08/21 01:18:26;;;;;;;16.58;4.30;;;;;;;18.93;100.00;102110.09;5069088;28;20049;-66
2023/08/21 01:20:52;;;;;;;16.30;4.30;;;;;;;18.81;100.00;102100.38;5073117;28;20494;-66
2023/08/21 01:23:37;;;;;;;17.67;4.32;;;;;;;18.73;100.00;102092.41;5073331;28;20029;-66
2023/08/21 01:26:03;;;;;;;14.48;4.15;;;;;;;18.58;100.00;102093.47;5069857;28;20052;-66
2023/08/21 01:28:29;;;;;;;14.73;4.22;;;;;;;18.55;100.00;102085.47;5073343;28;20386;-65
2023/08/21 01:31:03;;;;;;;15.73;4.47;;;;;;;18.46;100.00;102091.78;5073116;28;20107;-66
2023/08/21 01:33:32;;;;;;;15.57;4.50;;;;;;;18.35;100.00;102085.63;5069233;28;20104;-66
2023/08/21 01:36:00;;;;;;;17.25;4.90;;;;;;;18.32;100.00;102087.44;5068859;28;20035;-65
2023/08/21 01:38:25;;;;;;;17.27;5.10;;;;;;;18.23;100.00;102083.94;5073044;28;20025;-65
2023/08/21 01:40:51;;;;;;;17.30;4.78;;;;;;;18.27;100.00;102095.50;5072769;28;20060;-65
2023/08/21 01:43:16;;;;;;;17.27;4.70;;;;;;;18.26;100.00;102093.72;5072989;28;20063;-65
2023/08/21 01:45:42;;;;;;;15.63;4.80;;;;;;;18.23;100.00;102088.38;5072994;28;20387;-65
2023/08/21 01:48:07;;;;;;;17.58;4.82;;;;;;;18.18;100.00;102092.91;5072633;28;20024;-65
2023/08/21 01:50:33;;;;;;;18.00;4.85;;;;;;;18.02;100.00;102090.34;5073012;28;20107;-65
2023/08/21 01:52:58;;;;;;;16.13;4.60;;;;;;;17.94;100.00;102092.19;5073192;28;20024;-65
2023/08/21 01:55:23;;;;;;;15.13;4.88;;;;;;;17.79;100.00;102098.47;5072505;28;20538;-65
2023/08/21 01:57:49;;;;;;;16.50;4.60;;;;;;;17.69;100.00;102096.75;5072721;28;20428;-65
2023/08/21 02:00:14;;;;;;;17.02;4.80;;;;;;;17.66;100.00;102104.78;5072702;28;20037;-65
2023/08/21 02:02:40;;;;;;;16.00;4.78;;;;;;;17.68;100.00;102109.22;5072499;28;20052;-65
2023/08/21 02:05:06;;;;;;;17.50;4.82;;;;;;;17.64;100.00;102115.50;5072771;28;20097;-65
2023/08/21 02:07:31;;;;;;;16.63;4.55;;;;;;;17.73;100.00;102120.78;5071183;28;20429;-65
2023/08/21 02:09:57;;;;;;;16.30;4.63;;;;;;;17.78;100.00;102112.75;5071141;28;20033;-65
2023/08/21 02:12:22;;;;;;;17.70;4.85;;;;;;;17.78;100.00;102116.31;5072607;28;20020;-65
2023/08/21 02:14:48;;;;;;;17.10;4.85;;;;;;;17.89;100.00;102116.22;5072323;28;20103;-65
2023/08/21 02:17:14;;;;;;;17.15;4.65;;;;;;;17.90;100.00;102117.19;5072490;28;20074;-65
2023/08/21 02:19:39;;;;;;;17.67;4.90;;;;;;;17.84;100.00;102114.47;5072844;28;20379;-65
2023/08/21 02:22:04;;;;;;;18.75;4.80;;;;;;;17.82;100.00;102116.28;5072570;28;20416;-65
2023/08/21 02:24:30;;;;;;;17.33;4.90;;;;;;;17.75;100.00;102115.41;5072396;28;20029;-65
2023/08/21 02:26:55;;;;;;;17.83;4.63;;;;;;;17.75;100.00;102123.44;5072480;28;20367;-65
2023/08/21 02:29:21;;;;;;;17.15;5.18;;;;;;;17.70;100.00;102114.56;5072274;28;20446;-65
2023/08/21 02:31:46;;;;;;;16.95;5.18;;;;;;;17.60;100.00;102113.72;5072256;28;20124;-65
2023/08/21 02:34:11;;;;;;;16.45;4.80;;;;;;;17.53;100.00;102111.97;5072409;28;20112;-65
2023/08/21 02:36:36;;;;;;;18.52;4.95;;;;;;;17.58;100.00;102113.72;5072212;28;20090;-65
2023/08/21 02:39:03;;;;;;;18.48;5.10;;;;;;;17.53;100.00;102110.22;5071172;28;20388;-65
2023/08/21 02:41:29;;;;;;;16.25;4.40;;;;;;;17.52;100.00;102104.88;5072562;28;20036;-65
2023/08/21 02:43:54;;;;;;;16.45;5.03;;;;;;;17.43;100.00;102106.69;5072147;28;20451;-65
2023/08/21 02:46:19;;;;;;;15.90;4.50;;;;;;;17.61;100.00;102107.50;5072219;28;20479;-65
2023/08/21 02:48:45;;;;;;;15.85;4.22;;;;;;;17.51;100.00;102109.31;5072133;28;20021;-65
2023/08/21 02:51:10;;;;;;;14.93;4.57;;;;;;;17.35;100.00;102103.13;5072005;28;20031;-65
2023/08/21 02:53:35;;;;;;;14.68;4.70;;;;;;;17.27;100.00;102110.31;5072241;28;20112;-65
2023/08/21 02:56:01;;;;;;;17.55;4.65;;;;;;;17.12;100.00;102110.34;5072269;28;20064;-65
2023/08/21 02:58:26;;;;;;;14.20;4.45;;;;;;;17.07;100.00;102108.56;5071977;28;20407;-65
2023/08/21 03:00:51;;;;;;;14.38;4.40;;;;;;;17.00;100.00;102113.94;5072253;28;20036;-65
2023/08/21 03:03:17;;;;;;;15.10;4.70;;;;;;;16.84;100.00;102110.38;5071832;28;20076;-65
2023/08/21 03:05:42;;;;;;;15.63;4.40;;;;;;;16.71;100.00;102109.50;5071961;28;20090;-65
2023/08/21 03:08:07;;;;;;;17.13;4.22;;;;;;;16.69;100.00;102112.19;5072112;28;20024;-65
2023/08/21 03:10:34;;;;;;;15.43;4.25;;;;;;;16.77;100.00;102113.94;5071874;28;20380;-66
2023/08/21 03:13:00;;;;;;;17.08;4.78;;;;;;;16.86;100.00;102101.47;5071927;28;20035;-66
2023/08/21 03:15:25;;;;;;;18.80;4.78;;;;;;;16.87;100.00;102111.28;5071892;28;20032;-67
2023/08/21 03:17:51;;;;;;;16.92;4.70;;;;;;;16.75;100.00;102113.94;5071846;28;20036;-67
2023/08/21 03:20:17;;;;;;;17.55;4.20;;;;;;;16.69;100.00;102119.31;5072118;28;20020;-66
2023/08/21 03:22:43;;;;;;;13.75;4.35;;;;;;;16.56;100.00;102118.41;5075467;28;20104;-65
2023/08/21 03:25:08;;;;;;;15.00;4.47;;;;;;;16.51;100.00;102118.44;5075624;28;20123;-65
2023/08/21 03:27:39;;;;;;;17.92;4.82;;;;;;;16.51;100.00;102125.53;5074422;28;20065;-65
2023/08/21 03:30:06;;;;;;;16.35;4.90;;;;;;;16.51;100.00;102122.84;5075429;28;20119;-66
2023/08/21 03:32:32;;;;;;;18.10;4.63;;;;;;;16.52;100.00;102124.66;5073961;28;20036;-66
2023/08/21 03:34:57;;;;;;;17.38;4.90;;;;;;;16.64;100.00;102127.28;5071153;28;20559;-65
2023/08/21 03:37:23;;;;;;;14.93;4.60;;;;;;;16.70;100.00;102123.72;5075310;28;20111;-65
2023/08/21 03:39:48;;;;;;;20.83;5.13;;;;;;;16.71;100.00;102120.19;5075089;28;20027;-65
2023/08/21 03:42:13;;;;;;;17.42;5.18;;;;;;;16.66;100.00;102119.28;5075124;28;20037;-65
2023/08/21 03:44:39;;;;;;;15.93;4.93;;;;;;;16.56;100.00;102118.41;5074979;28;20040;-66
2023/08/21 03:47:05;;;;;;;16.98;5.10;;;;;;;16.54;100.00;102117.50;5074834;28;20024;-66
2023/08/21 03:49:30;;;;;;;17.15;4.88;;;;;;;16.52;100.00;102117.50;5075390;28;20037;-66
2023/08/21 03:51:55;;;;;;;17.85;5.47;;;;;;;16.43;100.00;102108.66;5074936;28;20479;-66
2023/08/21 03:54:21;;;;;;;17.00;5.10;;;;;;;16.41;100.00;102121.06;5074964;28;20023;-65
2023/08/21 03:56:46;;;;;;;15.23;4.80;;;;;;;16.44;100.00;102124.66;5074944;28;20064;-66
2023/08/21 03:59:11;;;;;;;18.33;5.07;;;;;;;16.36;100.00;102124.63;5074648;28;20062;-66
2023/08/21 04:01:37;;;;;;;17.10;5.32;;;;;;;16.50;100.00;102118.44;5074408;28;20383;-68
2023/08/21 04:04:03;;;;;;;17.77;5.15;;;;;;;16.46;100.00;102119.31;5074444;28;20059;-67
2023/08/21 04:06:28;;;;;;;17.70;5.30;;;;;;;16.39;100.00;102118.41;5074550;28;20045;-67
2023/08/21 04:08:53;;;;;;;16.63;5.30;;;;;;;16.34;100.00;102118.41;5074499;28;20033;-67
2023/08/21 04:11:19;;;;;;;15.90;4.75;;;;;;;16.34;100.00;102120.22;5073367;28;20120;-67
2023/08/21 04:13:44;;;;;;;16.90;5.07;;;;;;;16.24;100.00;102124.63;5074455;28;20060;-67
2023/08/21 04:16:10;;;;;;;17.38;4.80;;;;;;;16.22;100.00;102121.06;5074744;28;20422;-67
2023/08/21 04:18:36;;;;;;;18.38;5.22;;;;;;;16.23;100.00;102120.19;5074538;28;20427;-69
2023/08/21 04:21:02;;;;;;;17.45;5.03;;;;;;;16.15;100.00;102129.94;5074463;28;20029;-69
2023/08/21 04:23:27;;;;;;;18.00;5.55;;;;;;;16.06;100.00;102124.59;5074378;28;20041;-71
2023/08/21 04:25:53;;;;;;;16.30;5.03;;;;;;;16.10;100.00;102137.06;5074073;28;20044;-68
2023/08/21 04:28:18;;;;;;;18.63;5.35;;;;;;;16.09;100.00;102137.94;5074150;28;20033;-68
2023/08/21 04:30:43;;;;;;;18.60;5.40;;;;;;;16.24;100.00;102145.06;5074282;28;20108;-69
2023/08/21 04:33:09;;;;;;;18.30;5.10;;;;;;;16.19;100.00;102145.97;5073663;28;20044;-70
2023/08/21 04:35:38;;;;;;;23.48;6.00;;;;;;;16.42;100.00;102144.22;5073953;28;20031;-70
2023/08/21 04:38:04;;;;;;;19.48;5.57;;;;;;;16.56;100.00;102148.66;5074108;28;20029;-69
2023/08/21 04:40:29;;;;;;;19.17;5.70;;;;;;;16.64;100.00;102148.66;5073936;28;20115;-65
2023/08/21 04:42:54;;;;;;;19.73;5.68;;;;;;;16.67;100.00;102145.09;5074062;28;20506;-65
2023/08/21 04:45:20;;;;;;;17.80;5.28;;;;;;;16.81;100.00;102145.97;5073948;28;20029;-65
2023/08/21 04:47:45;;;;;;;17.83;5.68;;;;;;;16.88;100.00;102146.91;5073726;28;20074;-66
2023/08/21 04:50:12;;;;;;;20.27;5.90;;;;;;;16.98;100.00;102143.34;5073617;28;20167;-65
2023/08/21 04:52:37;;;;;;;18.23;5.22;;;;;;;16.97;100.00;102154.91;5073768;28;20051;-66
2023/08/21 04:55:03;;;;;;;15.60;5.13;;;;;;;16.81;100.00;102154.00;5073461;28;20033;-66
2023/08/21 04:57:28;;;;;;;19.55;5.72;;;;;;;16.76;100.00;102154.88;5069560;28;20471;-66
2023/08/21 04:59:53;;;;;;;20.00;5.95;;;;;;;16.81;100.00;102155.78;5073684;28;20032;-65
2023/08/21 05:02:19;;;;;;;18.60;5.63;;;;;;;16.78;100.00;102158.47;5073439;28;20150;-65
2023/08/21 05:04:44;;;;;;;17.48;6.05;;;;;;;16.79;100.00;102155.78;5055592;28;20048;-65
2023/08/21 05:07:10;;;;;;;17.60;5.47;;;;;;;16.81;100.00;102158.44;5073353;28;20033;-65
2023/08/21 05:09:35;;;;;;;16.55;5.60;;;;;;;16.79;100.00;102160.22;5073181;28;20037;-66
2023/08/21 05:12:00;;;;;;;19.17;5.90;;;;;;;16.79;100.00;102155.78;5073435;28;20029;-65
2023/08/21 05:14:26;;;;;;;17.73;5.78;;;;;;;16.80;100.00;102162.00;5073206;28;20029;-66
2023/08/21 05:16:51;;;;;;;18.95;5.90;;;;;;;16.73;100.00;102162.03;5073132;28;20028;-66
2023/08/21 05:19:17;;;;;;;20.17;6.13;;;;;;;16.75;100.00;102170.03;5073662;28;20044;-65
2023/08/21 05:21:43;;;;;;;20.10;5.68;;;;;;;16.71;100.00;102169.13;5073027;28;20475;-65
2023/08/21 05:24:09;;;;;;;20.35;5.70;;;;;;;16.79;100.00;102176.25;5073061;28;20028;-66
2023/08/21 05:26:38;;;;;;;17.95;5.80;;;;;;;16.84;100.00;102169.13;5073425;28;20063;-66
2023/08/21 05:29:04;;;;;;;19.50;5.90;;;;;;;16.90;100.00;102179.84;5072993;28;20032;-66
2023/08/21 05:31:29;;;;;;;18.95;6.07;;;;;;;16.99;100.00;102177.13;5073070;28;20024;-65
2023/08/21 05:33:54;;;;;;;20.23;5.93;;;;;;;17.14;100.00;102178.00;5073320;28;20529;-65
2023/08/21 05:36:20;;;;;;;19.58;5.88;;;;;;;17.22;100.00;102177.09;5073052;28;20021;-68
2023/08/21 05:38:47;;;;;;;20.10;6.03;;;;;;;17.27;100.00;102179.78;5073086;28;20483;-66
2023/08/21 05:41:13;;;;;;;18.20;5.88;;;;;;;17.30;100.00;102177.09;5073264;28;20032;-69
2023/08/21 05:43:39;;;;;;;20.40;6.13;;;;;;;17.37;100.00;102173.53;5072201;28;20094;-68
2023/08/21 05:46:06;;;;;;;20.55;6.22;;;;;;;17.43;100.00;102177.97;5072645;28;20044;-68
2023/08/21 05:48:31;;;;;;;20.70;5.97;;;;;;;17.43;100.00;102186.88;5072970;28;20107;-69
2023/08/21 05:50:57;;;;;;;21.92;6.30;;;;;;;17.40;100.00;102188.63;5072719;28;20072;-67
2023/08/21 05:53:22;;;;;;;20.33;6.50;;;;;;;17.34;100.00;102183.31;5072633;28;20032;-68
2023/08/21 05:55:48;;;;;;;21.92;6.32;;;;;;;17.28;100.00;102183.34;5072754;28;20035;-70
2023/08/21 05:58:13;;;;;;;21.52;6.82;;;;;;;17.30;100.00;102182.44;5070573;28;20540;-71
2023/08/21 06:00:39;;;;;;;23.17;6.50;;;;;;;17.38;100.00;102185.97;5072341;28;20036;-69
2023/08/21 06:03:04;;;;;;;23.40;6.57;;;;;;;17.46;100.00;102188.66;5072302;28;20119;-67
2023/08/21 06:05:30;;;;;;;21.77;6.63;;;;;;;17.56;100.00;102186.81;5072449;28;20103;-69
2023/08/21 06:07:55;;;;;;;23.38;6.65;;;;;;;17.59;100.00;102182.34;5072632;28;20037;-69
2023/08/21 06:10:21;;;;;;;19.05;6.60;;;;;;;17.67;100.00;102192.13;5072404;28;20107;-68
2023/08/21 06:12:47;;;;;;;20.90;6.30;;;;;;;17.67;100.00;102190.34;5071982;28;20048;-68
2023/08/21 06:15:13;;;;;;;20.40;6.70;;;;;;;17.77;100.00;102197.41;5072360;28;20438;-69
2023/08/21 06:17:39;;;;;;;21.38;7.05;;;;;;;17.84;100.00;102197.38;5072251;28;20060;-68
2023/08/21 06:20:05;;;;;;;21.10;7.53;;;;;;;17.91;100.00;102191.16;5072544;28;20111;-67
2023/08/21 06:22:35;;;;;;;20.60;7.40;;;;;;;17.99;100.00;102196.47;5072374;28;20155;-66
2023/08/21 06:25:00;;;;;;;20.17;7.45;;;;;;;18.06;100.00;102203.59;5071817;28;20040;-66
2023/08/21 06:27:26;;;;;;;20.15;7.20;;;;;;;18.17;100.00;102198.16;5072161;28;20033;-66
2023/08/21 06:29:51;;;;;;;22.83;7.90;;;;;;;18.22;100.00;102194.56;5072278;28;20030;-67
2023/08/21 06:32:17;;;;;;;22.17;8.20;;;;;;;18.27;100.00;102197.19;5072189;28;20044;-69
2023/08/21 06:34:42;;;;;;;21.30;8.35;;;;;;;18.33;100.00;102201.63;5072400;28;20106;-65
2023/08/21 06:37:07;;;;;;;21.20;8.20;;;;;;;18.39;100.00;102206.94;5071044;28;20029;-65
2023/08/21 06:39:34;;;;;;;22.00;8.57;;;;;;;18.46;100.00;102214.94;5067535;28;20055;-66
2023/08/21 06:42:00;;;;;;;21.35;8.13;;;;;;;18.56;100.00;102206.81;5069281;28;20029;-68
2023/08/21 06:44:25;;;;;;;19.80;7.88;;;;;;;18.69;100.00;102204.94;5072203;28;20028;-70
2023/08/21 06:46:51;;;;;;;20.30;8.10;;;;;;;18.83;100.00;102203.03;5072043;28;20033;-65
2023/08/21 06:49:16;;;;;;;20.95;8.25;;;;;;;18.96;100.00;102204.75;5071644;28;20074;-65
2023/08/21 06:51:41;;;;;;;20.88;8.10;;;;;;;19.10;100.00;102201.91;5072055;28;20383;-67
2023/08/21 06:54:07;;;;;;;20.75;8.05;;;;;;;19.27;100.00;102198.19;5071809;28;20040;-71
2023/08/21 06:56:32;;;;;;;20.90;8.15;;;;;;;19.49;100.00;102206.88;5075596;28;20029;-66
2023/08/21 06:58:58;;;;;;;20.42;8.43;;;;;;;19.74;100.00;102201.22;5075607;28;20033;-67
2023/08/21 07:01:23;;;;;;;22.48;8.68;;;;;;;19.96;100.00;102204.53;5075187;28;20017;-72
2023/08/21 07:03:48;;;;;;;23.83;9.50;;;;;;;20.29;100.00;102195.13;5075707;28;20051;-73
2023/08/21 07:06:14;;;;;;;22.88;9.50;;;;;;;20.48;100.00;102198.41;5075597;28;20379;-67
2023/08/21 07:08:40;;;;;;;20.42;8.80;;;;;;;20.54;100.00;102206.38;5075541;28;20375;-66
2023/08/21 07:11:07;;;;;;;21.63;8.85;;;;;;;20.54;100.00;102205.50;5073662;28;20040;-65
2023/08/21 07:13:33;;;;;;;20.40;8.35;;;;;;;20.49;100.00;102201.97;5068622;28;20107;-72
2023/08/21 07:15:58;;;;;;;20.42;7.80;;;;;;;20.45;100.00;102206.53;5066262;28;20119;-66
2023/08/21 07:18:24;;;;;;;21.90;8.98;;;;;;;20.39;100.00;102206.63;5067989;28;20027;-66
2023/08/21 07:20:52;;;;;;;20.83;8.60;;;;;;;20.38;100.00;102212.91;5075235;28;20448;-69
2023/08/21 07:23:17;;;;;;;21.20;9.20;;;;;;;20.32;100.00;102203.13;5075128;28;20536;-65
2023/08/21 07:25:43;;;;;;;22.30;9.77;;;;;;;20.28;100.00;102197.84;5073750;28;20036;-65
2023/08/21 07:28:10;;;;;;;22.85;10.07;;;;;;;20.23;100.00;102203.28;5075138;28;20511;-64
2023/08/21 07:30:38;;;;;;;22.25;10.13;;;;;;;20.22;100.00;102203.31;5075194;28;20036;-64
2023/08/21 07:33:03;;;;;;;22.50;10.55;;;;;;;20.23;100.00;102205.06;5071303;28;20388;-65
2023/08/21 07:35:29;;;;;;;22.50;9.45;;;;;;;20.16;100.00;102202.47;5074803;28;20032;-64
2023/08/21 07:37:54;;;;;;;21.88;10.25;;;;;;;20.12;100.00;102207.91;5074617;28;20490;-64
2023/08/21 07:40:20;;;;;;;21.15;9.95;;;;;;;20.17;100.00;102209.63;5075116;28;20518;-64
2023/08/21 07:42:45;;;;;;;21.00;9.45;;;;;;;20.24;100.00;102210.44;5075023;28;20112;-64
2023/08/21 07:45:11;;;;;;;21.10;8.10;;;;;;;20.34;100.00;102213.84;5074883;28;20035;-66
2023/08/21 07:47:36;;;;;;;22.70;8.95;;;;;;;20.46;100.00;102204.72;5074609;28;20029;-65
2023/08/21 07:50:01;;;;;;;23.23;9.48;;;;;;;20.55;100.00;102210.84;5074116;28;20150;-65
2023/08/21 07:52:27;;;;;;;21.05;8.63;;;;;;;20.71;100.00;102208.81;5074766;28;20036;-65
2023/08/21 07:54:53;;;;;;;20.70;7.88;;;;;;;20.95;100.00;102213.81;5074887;28;20039;-65
2023/08/21 07:57:18;;;;;;;20.70;7.40;;;;;;;21.10;100.00;102207.25;5074550;28;20402;-66
2023/08/21 07:59:44;;;;;;;18.60;6.35;;;;;;;21.26;100.00;102214.16;5074806;28;20032;-65
2023/08/21 08:02:11;;;;;;;19.65;6.13;;;;;;;21.34;100.00;102212.19;5074209;28;20120;-64
2023/08/21 08:04:37;;;;;;;19.35;6.80;;;;;;;21.41;100.00;102218.34;5074418;28;20048;-65
2023/08/21 08:07:02;;;;;;;20.70;6.93;;;;;;;21.48;100.00;102213.72;5074079;28;20040;-65
2023/08/21 08:09:27;;;;;;;20.23;6.28;;;;;;;21.69;100.00;102217.81;5074208;28;20017;-65
2023/08/21 08:11:53;;;;;;;20.15;7.05;;;;;;;21.84;100.00;102222.88;5074419;28;20446;-64
2023/08/21 08:14:18;;;;;;;19.08;6.53;;;;;;;22.31;100.00;102213.78;5074613;28;20104;-65
2023/08/21 08:16:43;;;;;;;19.35;6.70;;;;;;;22.72;100.00;102223.59;5074328;28;20036;-65
2023/08/21 08:19:09;;;;;;;20.02;6.47;;;;;;;23.24;100.00;102226.78;5074337;28;20115;-65
2023/08/21 08:21:34;;;;;;;19.40;5.88;;;;;;;23.92;100.00;102224.88;5074313;28;20056;-65
2023/08/21 08:23:59;;;;;;;20.42;6.50;;;;;;;23.97;100.00;102224.72;5074140;28;20041;-65
2023/08/21 08:26:25;;;;;;;20.27;5.90;;;;;;;24.41;100.00;102232.41;5074378;28;20059;-65
2023/08/21 08:28:50;;;;;;;18.80;5.95;;;;;;;24.75;100.00;102234.91;5074089;28;20024;-64
2023/08/21 08:31:17;;;;;;;21.58;6.45;;;;;;;24.98;100.00;102228.72;5074174;28;20032;-65
2023/08/21 08:33:42;;;;;;;18.55;6.20;;;;;;;24.91;100.00;102220.88;5074287;28;20032;-65
2023/08/21 08:36:08;;;;;;;18.48;5.88;;;;;;;24.87;100.00;102225.50;5073867;28;20068;-65
2023/08/21 08:38:33;;;;;;;19.45;6.07;;;;;;;24.89;100.00;102229.91;5074221;28;20037;-64
2023/08/21 08:41:01;;;;;;;20.30;6.35;;;;;;;25.18;100.00;102232.56;5074058;28;20070;-65
2023/08/21 08:43:28;;;;;;;20.42;6.10;;;;;;;26.05;100.00;102222.16;5073867;28;20025;-65
2023/08/21 08:45:57;;;;;;;18.73;5.47;;;;;;;26.65;100.00;102227.91;5073704;28;20021;-73
2023/08/21 08:48:23;;;;;;;19.52;5.30;;;;;;;27.45;100.00;102237.16;5074108;28;20020;-69
2023/08/21 08:50:50;;;;;;;17.92;5.00;;;;;;;27.63;100.00;102239.03;5073807;28;20037;-70
2023/08/21 08:53:17;;;;;;;17.15;5.00;;;;;;;27.42;100.00;102243.63;5072542;28;20024;-69
2023/08/21 08:55:43;;;;;;;15.13;4.57;;;;;;;28.05;91.89;102244.38;5073834;28;20027;-70
2023/08/21 08:58:09;;;;;;;18.52;5.00;;;;;;;27.87;92.40;102235.25;5073478;28;20020;-71
2023/08/21 09:00:34;;;;;;;20.17;5.63;;;;;;;27.86;90.25;102228.03;5073498;28;20048;-69
2023/08/21 09:02:59;;;;;;;18.13;5.18;;;;;;;27.45;94.42;102239.88;5073595;28;20016;-69
2023/08/21 09:05:25;;;;;;;18.50;4.80;;;;;;;26.96;100.00;102235.63;5073288;28;20454;-71
2023/08/21 09:08:17;;;;;;;15.95;3.63;;;;;;;27.33;100.00;102243.97;5072121;28;20040;-68
2023/08/21 09:10:43;;;;;;;15.63;4.60;;;;;;;27.42;87.86;102232.75;5069170;28;20063;-69
2023/08/21 09:13:10;;;;;;;18.50;5.13;;;;;;;27.16;86.02;102233.91;5073628;28;20056;-68
2023/08/21 09:15:36;;;;;;;15.90;4.32;;;;;;;26.79;93.37;102225.53;5073387;28;20875;-68
2023/08/21 09:18:02;;;;;;;15.20;3.45;;;;;;;26.82;84.69;102223.59;5072553;28;20024;-69
2023/08/21 09:20:27;;;;;;;17.27;4.43;;;;;;;27.21;89.65;102222.81;5073447;28;20493;-69
2023/08/21 09:22:55;;;;;;;16.25;4.60;;;;;;;27.37;84.44;102215.78;5071692;28;20093;-69
2023/08/21 09:25:20;;;;;;;17.85;4.40;;;;;;;27.09;88.26;102224.25;5071746;28;20040;-72
2023/08/21 09:27:51;;;;;;;17.85;4.80;;;;;;;26.88;89.96;102224.25;5073488;28;20324;-72
2023/08/21 09:30:16;;;;;;;16.15;4.40;;;;;;;27.34;85.57;102232.22;5069601;28;20103;-70
2023/08/21 09:33:16;;;;;;;15.65;3.70;;;;;;;28.59;82.44;102226.34;5068901;28;20536;-71
2023/08/21 09:35:42;;;;;;;14.10;3.50;;;;;;;29.36;65.95;102221.56;5065201;28;20516;-69
2023/08/21 09:38:08;;;;;;;17.27;4.05;;;;;;;30.34;61.84;102222.53;5072866;28;20152;-73
2023/08/21 09:40:34;;;;;;;14.60;3.40;;;;;;;30.71;59.08;102220.38;5073149;28;20153;-74
2023/08/21 09:42:59;;;;;;;15.48;3.47;;;;;;;31.09;56.83;102230.84;5073592;28;20123;-73
2023/08/21 09:45:28;;;;;;;16.40;3.30;;;;;;;31.44;55.13;102227.78;5072590;28;20446;-65
2023/08/21 09:47:54;;;;;;;12.80;2.90;;;;;;;31.52;54.67;102221.88;5072491;28;20037;-65
2023/08/21 09:50:20;;;;;;;12.73;2.95;;;;;;;31.52;54.83;102222.72;5072308;28;20606;-65
2023/08/21 09:52:45;;;;;;;15.55;3.00;;;;;;;31.92;53.50;102219.31;5071296;28;20541;-66
2023/08/21 09:55:13;;;;;;;13.00;2.67;;;;;;;32.66;50.35;102229.03;5072792;28;20029;-65
2023/08/21 09:57:40;;;;;;;16.30;3.13;;;;;;;32.61;49.72;102214.75;5072645;28;20028;-65
2023/08/21 10:00:20;;;;;;;15.93;2.83;;;;;;;31.77;50.99;102215.72;5072817;28;20060;-65
2023/08/21 10:02:49;;;;;;;12.75;2.67;;;;;;;32.38;49.60;102218.19;5072665;28;20052;-65
2023/08/21 10:05:19;;;;;;;9.60;2.50;;;;;;;33.02;48.41;102221.13;5072566;28;20407;-65
2023/08/21 10:07:48;;;;;;;13.35;2.70;;;;;;;33.97;47.63;102218.94;5072524;28;20503;-65
2023/08/21 10:10:14;;;;;;;13.23;2.65;;;;;;;34.19;45.28;102211.88;5072628;28;20032;-65
2023/08/21 10:12:39;;;;;;;10.82;2.50;;;;;;;34.19;44.21;102207.28;5072698;28;20028;-65
2023/08/21 10:15:08;;;;;;;11.02;2.40;;;;;;;34.95;44.74;102209.81;5072453;28;20390;-64
2023/08/21 10:17:35;;;;;;;10.95;2.40;;;;;;;34.92;43.13;102208.16;5072435;28;20426;-65
2023/08/21 10:20:04;;;;;;;14.10;2.90;;;;;;;34.74;44.00;102202.19;5072744;28;20470;-65
2023/08/21 10:22:46;;;;;;;11.75;2.83;;;;;;;35.15;44.36;102202.69;5068317;28;20357;-65
2023/08/21 10:25:22;;;;;;;11.55;2.75;;;;;;;35.21;43.67;102201.34;5070104;28;20024;-65
2023/08/21 10:27:56;;;;;;;13.00;2.40;;;;;;;35.62;42.98;102202.66;5072372;28;20037;-65
2023/08/21 10:30:26;;;;;;;10.77;2.50;;;;;;;35.60;40.36;102205.53;5074204;28;20024;-65
2023/08/21 10:32:54;;;;;;;10.90;2.20;;;;;;;35.96;40.01;102202.66;5076860;28;20190;-66
2023/08/21 10:35:30;;;;;;;11.73;2.50;;;;;;;35.65;39.35;102205.16;5076209;28;20097;-65
2023/08/21 10:38:05;;;;;;;7.72;2.20;;;;;;;35.90;38.77;102205.94;5076358;28;20535;-66
2023/08/21 10:40:30;;;;;;;11.60;2.30;;;;;;;36.40;35.96;102202.72;5072646;28;20425;-65
2023/08/21 10:42:56;;;;;;;8.43;2.22;;;;;;;36.61;36.10;102197.22;5076411;28;20029;-66
2023/08/21 10:45:21;;;;;;;8.02;2.15;;;;;;;37.21;35.63;102202.16;5076224;28;20040;-65
2023/08/21 10:47:49;;;;;;;9.40;2.20;;;;;;;37.65;35.75;102194.59;5076412;28;20191;-66
2023/08/21 10:50:14;;;;;;;8.07;2.28;;;;;;;37.87;35.16;102203.69;5076296;28;20028;-66
2023/08/21 10:52:42;;;;;;;12.05;2.50;;;;;;;38.34;34.97;102204.81;5076106;28;20548;-66
2023/08/21 10:55:12;;;;;;;11.43;2.50;;;;;;;38.96;33.69;102211.97;5075970;28;20037;-66
2023/08/21 10:57:38;;;;;;;10.68;2.50;;;;;;;38.65;33.95;102207.47;5076121;28;20028;-65
2023/08/21 11:00:09;;;;;;;13.85;2.60;;;;;;;37.90;34.63;102209.78;5075957;28;20426;-66
2023/08/21 11:02:37;;;;;;;11.43;2.60;;;;;;;37.45;35.35;102208.28;5072360;28;20455;-66
2023/08/21 11:05:03;;;;;;;12.35;2.70;;;;;;;37.64;35.82;102206.63;5075667;28;20044;-69
2023/08/21 11:07:29;;;;;;;11.60;2.70;;;;;;;38.65;33.89;102201.94;5075890;28;20021;-69
2023/08/21 11:09:54;;;;;;;11.90;2.67;;;;;;;38.66;34.69;102205.59;5075954;28;20028;-71